DW7673 Weather Reports


Display with metric or nautical units.
time (UTC)temp
F
wind
direction
speed
MPH
gust
MPH
rain 1hr
in
rain 24hr
in
rain mn
in
humidity
%
barometer
mb
20171120060240 64 191 0.0 1.0 0.00 0.00 0.00 23 1012.8
20171120055240 65 118 0.0 0.0 0.00 0.00 0.00 21 1012.9
20171120054240 68 105 0.0 2.0 0.00 0.00 0.00 19 1012.8
20171120053246 70 39 0.0 2.0 0.00 0.00 0.00 15 1012.6
20171120052240 70 23 1.0 3.0 0.00 0.00 0.00 15 1012.5
20171120051240 70 350 0.0 1.0 0.00 0.00 0.00 17 1012.6
20171120050240 71 345 1.0 5.0 0.00 0.00 0.00 17 1012.6
20171120045240 70 16 0.0 3.0 0.00 0.00 0.00 18 1012.7
20171120044241 71 314 1.0 7.0 0.00 0.00 0.00 17 1012.6
20171120043240 71 331 0.0 3.0 0.00 0.00 0.00 18 1012.6
20171120042240 71 328 1.0 5.0 0.00 0.00 0.00 17 1012.4
20171120041248 71 321 1.0 3.0 0.00 0.00 0.00 17 1012.5
20171120040247 70 321 1.0 3.0 0.00 0.00 0.00 17 1012.3
20171120035245 69 323 1.0 3.0 0.00 0.00 0.00 18 1012.3
20171120034244 66 329 0.0 2.0 0.00 0.00 0.00 22 1012.4
20171120033245 61 252 0.0 0.0 0.00 0.00 0.00 26 1012.2
20171120032245 61 252 0.0 0.0 0.00 0.00 0.00 25 1012.2
20171120031251 62 252 0.0 0.0 0.00 0.00 0.00 25 1012.2
20171120030240 61 253 0.0 0.0 0.00 0.00 0.00 24 1012.1
20171120025240 63 252 0.0 0.0 0.00 0.00 0.00 27 1011.9
20171120024241 63 253 0.0 0.0 0.00 0.00 0.00 25 1011.6
20171120023240 63 252 0.0 0.0 0.00 0.00 0.00 25 1011.6
20171120022240 64 253 0.0 0.0 0.00 0.00 0.00 25 1011.4
20171120021240 64 252 0.0 0.0 0.00 0.00 0.00 25 1011.3
20171120020240 65 253 0.0 0.0 0.00 0.00 0.00 25 1011.3
20171120015240 65 253 0.0 0.0 0.00 0.00 0.00 23 1011.2
20171120014240 66 253 0.0 0.0 0.00 0.00 0.00 24 1011.1
20171120013240 68 253 0.0 0.0 0.00 0.00 0.00 22 1011.1
20171120012241 69 253 0.0 0.0 0.00 0.00 0.00 21 1010.9
20171120011241 70 253 0.0 0.0 0.00 0.00 0.00 21 1010.9
20171120010241 70 253 0.0 0.0 0.00 0.00 0.00 21 1010.9
20171120005241 72 253 0.0 0.0 0.00 0.00 0.00 19 1010.8
20171120004243 74 253 0.0 0.0 0.00 0.00 0.00 17 1010.6
20171120003246 76 253 0.0 1.0 0.00 0.00 0.00 15 1010.6
20171120002241 77 253 0.0 1.0 0.00 0.00 0.00 14 1010.6
20171120001241 80 318 0.0 0.0 0.00 0.00 0.00 13 1010.6
20171120000243 81 337 0.0 0.0 0.00 0.00 0.00 13 1010.6
20171119235243 81 339 0.0 1.0 0.00 0.00 0.00 12 1010.4
20171119234240 82 49 0.0 0.0 0.00 0.00 0.00 12 1010.4
20171119233241 83 91 0.0 1.0 0.00 0.00 0.00 12 1010.3
20171119232240 83 20 0.0 1.0 0.00 0.00 0.00 11 1010.3
20171119231241 83 129 0.0 2.0 0.00 0.00 0.00 11 1010.4
20171119230241 83 52 0.0 3.0 0.00 0.00 0.00 11 1010.5
20171119225242 83 111 0.0 2.0 0.00 0.00 0.00 11 1010.6
20171119224240 82 24 0.0 3.0 0.00 0.00 0.00 12 1010.5
20171119223241 82 73 0.0 2.0 0.00 0.00 0.00 12 1010.7
20171119222241 82 79 0.0 3.0 0.00 0.00 0.00 12 1010.8
20171119221242 82 2 1.0 3.0 0.00 0.00 0.00 11 1011.0
20171119220242 82 5 1.0 3.0 0.00 0.00 0.00 11 1011.1
20171119215241 82 9 1.0 3.0 0.00 0.00 0.00 11 1011.2
20171119214241 81 115 1.0 3.0 0.00 0.00 0.00 12 1011.2
20171119213243 81 324 1.0 3.0 0.00 0.00 0.00 11 1011.3
20171119212242 81 332 1.0 3.0 0.00 0.00 0.00 13 1011.5
20171119211241 81 77 1.0 3.0 0.00 0.00 0.00 12 1011.6
20171119210241 81 350 1.0 5.0 0.00 0.00 0.00 11 1011.7
20171119205241 82 300 1.0 3.0 0.00 0.00 0.00 12 1011.9
20171119204241 82 131 1.0 3.0 0.00 0.00 0.00 12 1012.1
20171119203241 81 97 0.0 3.0 0.00 0.00 0.00 12 1012.2
20171119202241 81 209 0.0 5.0 0.00 0.00 0.00 13 1012.4
20171119201240 80 82 1.0 6.0 0.00 0.00 0.00 13 1012.7
20171119200240 80 137 0.0 2.0 0.00 0.00 0.00 13 1012.9
20171119195240 79 91 0.0 3.0 0.00 0.00 0.00 13 1013.1
20171119194241 79 16 1.0 3.0 0.00 0.00 0.00 13 1013.2
20171119193241 79 96 1.0 3.0 0.00 0.00 0.00 13 1013.6
20171119192242 79 296 0.0 3.0 0.00 0.00 0.00 13 1013.7
20171119191240 78 90 0.0 6.0 0.00 0.00 0.00 15 1014.0
20171119190241 77 103 0.0 3.0 0.00 0.00 0.00 15 1014.2
20171119185241 77 105 1.0 3.0 0.00 0.00 0.00 14 1014.4
20171119184241 76 38 1.0 3.0 0.00 0.00 0.00 14 1014.7
20171119183240 76 358 1.0 5.0 0.00 0.00 0.00 14 1015.1
20171119182241 75 62 1.0 3.0 0.00 0.00 0.00 14 1015.5
20171119181243 75 349 1.0 6.0 0.00 0.00 0.00 14 1015.6
20171119180240 74 299 2.0 5.0 0.00 0.00 0.00 14 1015.7
20171119175240 74 345 1.0 5.0 0.00 0.00 0.00 15 1015.9
20171119174240 73 12 2.0 3.0 0.00 0.00 0.00 15 1015.8
20171119173241 72 24 2.0 7.0 0.00 0.00 0.00 15 1016.0
20171119172241 71 22 2.0 6.0 0.00 0.00 0.00 15 1016.0
20171119171241 71 334 2.0 5.0 0.00 0.00 0.00 16 1016.2
20171119170243 70 12 2.0 5.0 0.00 0.00 0.00 16 1016.3
20171119165241 69 45 1.0 8.0 0.00 0.00 0.00 16 1016.4
20171119164241 68 13 3.0 8.0 0.00 0.00 0.00 16 1016.3
20171119163241 68 344 3.0 5.0 0.00 0.00 0.00 16 1016.3
20171119162241 67 125 2.0 8.0 0.00 0.00 0.00 17 1016.4
20171119161241 67 1 3.0 8.0 0.00 0.00 0.00 16 1016.4
20171119160241 66 38 3.0 7.0 0.00 0.00 0.00 16 1016.3
20171119155240 65 352 2.0 10.0 0.00 0.00 0.00 16 1016.3
20171119154241 65 344 3.0 8.0 0.00 0.00 0.00 16 1016.2
20171119153240 64 34 3.0 12.0 0.00 0.00 0.00 16 1016.0
20171119152241 64 9 2.0 8.0 0.00 0.00 0.00 16 1015.8
20171119151241 63 346 2.0 5.0 0.00 0.00 0.00 16 1015.8
20171119150241 63 12 2.0 7.0 0.00 0.00 0.00 16 1015.7
20171119145242 63 351 2.0 8.0 0.00 0.00 0.00 16 1015.5
20171119144241 62 341 1.0 3.0 0.00 0.00 0.00 16 1015.5
20171119143243 63 357 1.0 5.0 0.00 0.00 0.00 16 1015.3
20171119142242 63 342 1.0 6.0 0.00 0.00 0.00 15 1015.2
20171119141241 63 3 2.0 8.0 0.00 0.00 0.00 15 1015.2
20171119140241 63 340 2.0 7.0 0.00 0.00 0.00 15 1015.0
20171119135243 64 344 3.0 7.0 0.00 0.00 0.00 15 1014.8
20171119134240 64 351 3.0 8.0 0.00 0.00 0.00 14 1014.6
20171119133242 64 333 2.0 7.0 0.00 0.00 0.00 14 1014.6
20171119132241 64 287 2.0 8.0 0.00 0.00 0.00 14 1014.6
20171119131241 64 337 1.0 6.0 0.00 0.00 0.00 14 1014.7
20171119130241 64 288 3.0 8.0 0.00 0.00 0.00 14 1014.6
20171119125241 64 349 1.0 3.0 0.00 0.00 0.00 14 1014.6
20171119124241 64 19 1.0 6.0 0.00 0.00 0.00 14 1014.6
20171119123241 65 349 2.0 6.0 0.00 0.00 0.00 13 1014.6
20171119122242 65 352 2.0 7.0 0.00 0.00 0.00 13 1014.5
20171119121242 65 346 3.0 12.0 0.00 0.00 0.00 13 1014.4
20171119120244 65 337 2.0 8.0 0.00 0.00 0.00 13 1014.4
20171119115241 64 344 3.0 9.0 0.00 0.00 0.00 13 1014.5
20171119114242 64 342 4.0 9.0 0.00 0.00 0.00 13 1014.5
20171119113241 64 18 3.0 9.0 0.00 0.00 0.00 13 1014.4
20171119112241 64 343 3.0 10.0 0.00 0.00 0.00 12 1014.4
20171119111241 64 347 5.0 10.0 0.00 0.00 0.00 12 1014.4
20171119110241 64 319 3.0 12.0 0.00 0.00 0.00 12 1014.5
20171119105241 64 288 4.0 9.0 0.00 0.00 0.00 12 1014.5
20171119104241 64 344 5.0 10.0 0.00 0.00 0.00 12 1014.6
20171119103241 64 344 3.0 13.0 0.00 0.00 0.00 12 1014.7
20171119102241 64 336 3.0 9.0 0.00 0.00 0.00 11 1014.7
20171119101242 64 63 3.0 14.0 0.00 0.00 0.00 12 1014.7
20171119100243 64 352 5.0 12.0 0.00 0.00 0.00 12 1014.9
20171119095242 64 346 3.0 10.0 0.00 0.00 0.00 12 1014.8
20171119094244 64 326 2.0 9.0 0.00 0.00 0.00 12 1014.9
20171119093241 65 338 3.0 9.0 0.00 0.00 0.00 12 1015.0
20171119092243 65 354 4.0 9.0 0.00 0.00 0.00 12 1015.1
20171119091242 65 326 2.0 7.0 0.00 0.00 0.00 12 1015.2
20171119090242 65 181 3.0 7.0 0.00 0.00 0.00 12 1015.4
20171119085241 65 27 1.0 3.0 0.00 0.00 0.00 13 1015.5
20171119084242 65 89 1.0 5.0 0.00 0.00 0.00 13 1015.6
20171119083242 63 323 0.0 3.0 0.00 0.00 0.00 15 1015.6
20171119082245 61 139 0.0 1.0 0.00 0.00 0.00 19 1015.6
20171119081242 62 235 0.0 1.0 0.00 0.00 0.00 18 1015.6
20171119080241 64 148 0.0 1.0 0.00 0.00 0.00 16 1015.6
20171119075241 66 330 0.0 1.0 0.00 0.00 0.00 15 1015.6
20171119074241 67 333 0.0 3.0 0.00 0.00 0.00 12 1015.6
20171119073242 67 326 1.0 3.0 0.00 0.00 0.00 12 1015.8
20171119072246 68 335 1.0 6.0 0.00 0.00 0.00 11 1015.8
20171119071241 67 9 3.0 7.0 0.00 0.00 0.00 11 1015.9
20171119070241 67 343 1.0 6.0 0.00 0.00 0.00 11 1015.9
20171119065242 67 329 2.0 5.0 0.00 0.00 0.00 12 1016.0
20171119064241 66 349 1.0 3.0 0.00 0.00 0.00 13 1016.0
20171119063242 67 22 1.0 3.0 0.00 0.00 0.00 12 1016.1
20171119062241 67 342 1.0 3.0 0.00 0.00 0.00 12 1016.1
20171119061242 68 319 2.0 5.0 0.00 0.00 0.00 11 1016.2